»·PEaware :: COWBOY11 KLSV-KLAS

COWBOY11 :: KLSV-KLAS

FLIGHT INFORMATION

Flight Status: Arrived
Operator: Unknown
More flights by this operator :: More flights under this callsign
Pilot: Anonymous 3903 (3903)
Aircraft: NORTHROP F-5 FREEDON FIGHTER
(F5)
More flights by this aircraft type
Origin: KLSV Nellis AFB
United States
Destination: KLAS McCarran Intl
United States
More flights between these airports :: More routes between these airports
Route: FYTTR4 FYTTR BTY FUZZY8
File this flight plan on PilotEdge
Remarks:
Altitude:
(Current/Filed)
6,000ft
Speed:
(Current/Filed)
425kts
Departed: 01-Dec-17 04:36 PM
Arrived: 01-Dec-17 05:07 PM
Distance/Time
Traveled:
11nm/0:31
Distance/Time
To Go:
Arrived

Flight Plot

Page will automatically refresh every two minutes.

Flight plan parsing failed; only flown route is shown


Map Options




Map Legend


Flown Route
Filed Route
Departure Airport
Arrival Airport
Navaid (VOR, NDB)
Fix

Horizontal Profiles

Position Reports

Time Latitude Longitude Heading Altitude Ground
Speed
01-Dec-17 16:17 36.231056 -115.046521 220 1852ft 0kts
01-Dec-17 16:18 36.231056 -115.046521 220 1852ft 0kts
01-Dec-17 16:19 36.231056 -115.046521 220 1852ft 0kts
01-Dec-17 16:20 36.231056 -115.046521 220 1852ft 0kts
01-Dec-17 16:21 36.231056 -115.046521 220 1852ft 0kts
01-Dec-17 16:22 36.231056 -115.046521 220 1852ft 0kts
01-Dec-17 16:23 36.231056 -115.046521 220 1852ft 0kts
01-Dec-17 16:24 36.231056 -115.046521 220 1852ft 0kts
01-Dec-17 16:25 36.231056 -115.046521 220 1852ft 0kts
01-Dec-17 16:26 36.231056 -115.046521 220 1852ft 0kts
01-Dec-17 16:27 36.231056 -115.046521 220 1852ft 0kts
01-Dec-17 16:28 36.231056 -115.046521 220 1852ft 0kts
01-Dec-17 16:29 36.231052 -115.046526 220 1852ft 0kts
01-Dec-17 16:30 36.231991 -115.043442 41 1853ft 29kts
01-Dec-17 16:31 36.237105 -115.037899 40 1858ft 26kts
01-Dec-17 16:32 36.242990 -115.031525 34 1861ft 19kts
01-Dec-17 16:33 36.247270 -115.030610 91 1863ft 11kts
01-Dec-17 16:34 36.246795 -115.026095 91 1861ft 7kts
01-Dec-17 16:35 36.246794 -115.026070 91 1861ft 0kts
01-Dec-17 16:36 36.246794 -115.026070 91 1861ft 0kts
01-Dec-17 16:37 36.246794 -115.026070 91 1861ft 0kts
01-Dec-17 16:38 36.246794 -115.026070 91 1861ft 0kts
01-Dec-17 16:39 36.246794 -115.026070 91 1861ft 0kts
01-Dec-17 16:40 36.246783 -115.025686 90 1861ft 16kts
01-Dec-17 16:41 36.234594 -115.038215 220 1853ft 169kts
01-Dec-17 16:42 36.229239 -115.089052 352 3957ft 223kts
01-Dec-17 16:43 36.265327 -115.133730 281 7024ft 228kts
01-Dec-17 16:44 36.283225 -115.229352 281 11847ft 289kts
01-Dec-17 16:45 36.299679 -115.331280 278 15195ft 297kts
01-Dec-17 16:46 36.314906 -115.438873 279 18270ft 323kts
01-Dec-17 16:47 36.332655 -115.560765 279 19257ft 401kts
01-Dec-17 16:48 36.354382 -115.695847 281 21648ft 389kts
01-Dec-17 16:49 36.401076 -115.822477 296 22339ft 431kts
01-Dec-17 16:50 36.458522 -115.963920 296 22342ft 487kts
01-Dec-17 16:51 36.526475 -116.117154 297 22347ft 518kts
01-Dec-17 16:52 36.592878 -116.278404 296 22379ft 526kts
01-Dec-17 16:53 36.662268 -116.438933 299 22377ft 528kts
01-Dec-17 16:54 36.736530 -116.596527 300 22347ft 527kts
01-Dec-17 16:55 36.797675 -116.759635 292 22402ft 516kts
01-Dec-17 16:56 36.905862 -116.853112 18 22377ft 501kts
01-Dec-17 16:57 36.873559 -116.744619 155 22426ft 472kts
01-Dec-17 16:58 36.776233 -116.675676 138 22366ft 498kts
01-Dec-17 16:59 36.662933 -116.527164 130 22441ft 511kts
01-Dec-17 17:00 36.575228 -116.387643 126 22412ft 514kts
01-Dec-17 17:01 36.503860 -116.268481 125 22393ft 513kts
01-Dec-17 17:02 36.419001 -116.129137 128 21173ft 471kts
01-Dec-17 17:03 36.340315 -116.010079 129 18024ft 439kts
01-Dec-17 17:04 36.263360 -115.895856 128 16184ft 443kts
01-Dec-17 17:05 36.201611 -115.755429 111 16233ft 484kts
01-Dec-17 17:06 36.158519 -115.611937 108 14718ft 391kts
01-Dec-17 17:07 36.125133 -115.491776 107 10699ft 364kts
01-Dec-17 17:08 36.097162 -115.382644 107 10074ft 315kts
01-Dec-17 17:09 36.106526 -115.282693 60 7956ft 282kts
01-Dec-17 17:10 36.143874 -115.203975 70 4914ft 251kts
01-Dec-17 17:11 36.120784 -115.146401 189 2777ft 188kts
01-Dec-17 17:12 36.084523 -115.165657 220 2166ft 31kts
01-Dec-17 17:13 36.081699 -115.169338 286 2176ft 9kts
01-Dec-17 17:14 36.082210 -115.169610 22 2174ft 0kts
01-Dec-17 17:15 36.082210 -115.169610 22 2174ft 0kts
01-Dec-17 17:16 36.082210 -115.169610 22 2174ft 0kts
01-Dec-17 17:17 36.082210 -115.169610 22 2174ft 0kts
01-Dec-17 17:18 36.082210 -115.169610 22 2174ft 0kts
01-Dec-17 17:19 36.082210 -115.169610 22 2174ft 0kts
01-Dec-17 17:20 36.082210 -115.169610 22 2174ft 0kts
01-Dec-17 17:21 36.082210 -115.169610 22 2174ft 0kts
01-Dec-17 17:22 36.082210 -115.169610 22 2174ft 0kts
01-Dec-17 17:23 36.082210 -115.169610 22 2174ft 0kts
01-Dec-17 17:24 36.082210 -115.169610 22 2174ft 0kts
01-Dec-17 17:25 36.082210 -115.169610 22 2174ft 0kts
01-Dec-17 17:26 36.082210 -115.169610 22 2174ft 0kts

Navigation Log

Ident Type
Flight plan parsing failed, navigation log unavailable